createdAt,value
2018-06-25T00:02:05.298Z,96986.85
2018-06-25T00:05:30.000Z,96983.86
2018-06-25T00:08:54.637Z,96985.13
2018-06-25T00:12:19.325Z,96987.81
2018-06-25T00:15:44.012Z,96979.80
2018-06-25T00:19:08.706Z,96982.20
2018-06-25T00:22:33.360Z,96986.62
2018-06-25T00:25:58.010Z,96997.25
2018-06-25T00:29:22.704Z,97003.38
2018-06-25T00:32:47.410Z,96998.90
2018-06-25T00:36:12.094Z,96996.15
2018-06-25T00:39:36.842Z,96996.49
2018-06-25T00:43:01.585Z,96997.20
2018-06-25T00:46:27.260Z,96995.94
2018-06-25T00:49:52.068Z,96993.30
2018-06-25T00:53:16.748Z,96991.78
2018-06-25T00:56:41.398Z,96989.91
2018-06-25T01:00:06.132Z,96987.08
2018-06-25T01:03:30.823Z,96983.97
2018-06-25T01:06:55.514Z,96983.52
2018-06-25T01:10:21.168Z,96976.28
2018-06-25T01:13:45.832Z,96978.02
2018-06-25T01:17:10.952Z,96976.48
2018-06-25T01:20:35.725Z,96984.47
2018-06-25T01:24:00.520Z,96983.49
2018-06-25T01:27:25.178Z,96974.48
2018-06-25T01:30:49.998Z,96988.64
2018-06-25T01:34:14.587Z,96987.47
2018-06-25T01:37:39.304Z,96985.34
2018-06-25T01:41:04.058Z,96985.06
2018-06-25T01:44:28.839Z,96980.03
2018-06-25T01:47:53.471Z,96979.92
2018-06-25T01:51:18.136Z,96978.61
2018-06-25T01:54:42.904Z,96974.98
2018-06-25T01:58:07.698Z,96973.14
2018-06-25T02:01:32.384Z,96973.38
2018-06-25T02:04:57.131Z,96971.14
2018-06-25T02:08:21.729Z,96964.49
2018-06-25T02:11:46.365Z,96967.28
2018-06-25T02:15:11.343Z,96972.30
2018-06-25T02:18:36.096Z,96969.84
2018-06-25T02:22:00.710Z,96969.78
2018-06-25T02:25:25.475Z,96975.21
2018-06-25T02:28:50.166Z,96971.49
2018-06-25T02:32:14.794Z,96966.77
2018-06-25T02:35:39.442Z,96969.78
2018-06-25T02:39:04.316Z,96975.67
2018-06-25T02:42:29.022Z,96978.90
2018-06-25T02:45:53.351Z,96979.94
2018-06-25T02:49:17.628Z,96981.14
2018-06-25T02:52:42.267Z,96980.67
2018-06-25T02:56:06.935Z,96978.70
2018-06-25T02:59:31.567Z,96982.13
2018-06-25T03:02:56.271Z,96987.09
2018-06-25T03:06:20.963Z,96982.85
2018-06-25T03:09:45.675Z,96975.50
2018-06-25T03:13:10.335Z,96975.94
2018-06-25T03:16:35.485Z,96975.70
2018-06-25T03:20:00.189Z,96977.97
2018-06-25T03:23:24.871Z,96991.66
2018-06-25T03:26:49.617Z,96988.45
2018-06-25T03:30:15.377Z,96991.92
2018-06-25T03:33:40.078Z,96988.78
2018-06-25T03:37:04.881Z,96994.83
2018-06-25T03:40:29.518Z,96996.64
2018-06-25T03:43:54.221Z,96997.23
2018-06-25T03:47:18.856Z,96997.37
2018-06-25T03:50:43.474Z,97002.27
2018-06-25T03:54:08.131Z,97003.98
2018-06-25T03:57:32.797Z,97005.30
2018-06-25T04:00:57.627Z,97014.03
2018-06-25T04:04:22.487Z,97012.09
2018-06-25T04:07:47.486Z,97013.40
2018-06-25T04:11:12.209Z,97009.39
2018-06-25T04:14:36.869Z,97011.61
2018-06-25T04:18:01.697Z,97012.41
2018-06-25T04:21:26.452Z,97011.09
2018-06-25T04:24:51.165Z,97011.53
2018-06-25T04:28:15.968Z,97017.67
2018-06-25T04:31:40.762Z,97018.52
2018-06-25T04:35:05.477Z,97014.05
2018-06-25T04:38:30.328Z,97030.31
2018-06-25T04:41:55.176Z,97024.00
2018-06-25T04:45:20.961Z,97028.41
2018-06-25T04:48:45.722Z,97034.31
2018-06-25T04:52:10.487Z,97031.88
2018-06-25T04:55:35.350Z,97032.38
2018-06-25T04:59:00.166Z,97034.81
2018-06-25T05:02:24.995Z,97031.16
2018-06-25T05:05:49.693Z,97023.91
2018-06-25T05:09:14.514Z,97024.86
2018-06-25T05:12:38.896Z,97029.37
2018-06-25T05:16:03.272Z,97031.78
2018-06-25T05:19:27.962Z,97036.02
2018-06-25T05:22:52.777Z,97045.34
2018-06-25T05:26:17.484Z,97050.63
2018-06-25T05:29:42.176Z,97045.30
2018-06-25T05:33:07.464Z,97049.39
2018-06-25T05:36:32.170Z,97048.09
2018-06-25T05:39:56.964Z,97053.30
2018-06-25T05:43:21.668Z,97065.25
2018-06-25T05:46:46.412Z,97061.94
2018-06-25T05:50:11.260Z,97061.48
2018-06-25T05:53:36.128Z,97066.17
2018-06-25T05:57:00.832Z,97070.84
2018-06-25T06:00:25.555Z,97069.25
2018-06-25T06:03:50.224Z,97078.61
2018-06-25T06:07:14.985Z,97082.39
2018-06-25T06:10:39.766Z,97086.84
2018-06-25T06:14:05.311Z,97079.24
2018-06-25T06:17:30.161Z,97084.33
2018-06-25T06:20:54.918Z,97082.33
2018-06-25T06:24:19.744Z,97087.23
2018-06-25T06:27:44.385Z,97086.62
2018-06-25T06:31:09.072Z,97083.89
2018-06-25T06:34:33.845Z,97095.54
2018-06-25T06:37:58.591Z,97099.05
2018-06-25T06:41:23.354Z,97105.75
2018-06-25T06:44:48.112Z,97105.59
2018-06-25T06:48:12.807Z,97105.80
2018-06-25T06:51:37.397Z,97109.12
2018-06-25T06:55:02.101Z,97113.16
2018-06-25T06:58:26.891Z,97109.38
2018-06-25T07:01:51.594Z,97113.66
2018-06-25T07:05:16.383Z,97119.63
2018-06-25T07:08:41.350Z,97123.52
2018-06-25T07:12:06.075Z,97133.47
2018-06-25T07:15:30.901Z,97123.60
2018-06-25T07:18:56.360Z,97127.90
2018-06-25T07:22:21.017Z,97132.27
2018-06-25T07:25:45.805Z,97134.25
2018-06-25T07:29:10.501Z,97134.48
2018-06-25T07:32:35.357Z,97133.75
2018-06-25T07:36:00.124Z,97138.41
2018-06-25T07:39:24.921Z,97134.64
2018-06-25T07:42:49.754Z,97123.61
2018-06-25T07:46:14.703Z,97138.41
2018-06-25T07:49:39.419Z,97140.42
2018-06-25T07:53:04.185Z,97135.41
2018-06-25T07:56:28.904Z,97131.38
2018-06-25T07:59:53.623Z,97136.19
2018-06-25T08:03:18.310Z,97138.52
2018-06-25T08:06:43.205Z,97130.66
2018-06-25T08:10:08.097Z,97138.86
2018-06-25T08:13:32.641Z,97144.11
2018-06-25T08:16:57.360Z,97139.89
2018-06-25T08:20:22.184Z,97144.95
2018-06-25T08:23:46.843Z,97156.06
2018-06-25T08:27:11.511Z,97150.22
2018-06-25T08:30:36.239Z,97153.09
2018-06-25T08:34:01.244Z,97158.73
2018-06-25T08:37:25.925Z,97152.50
2018-06-25T08:40:50.635Z,97159.00
2018-06-25T08:44:15.343Z,97158.47
2018-06-25T08:47:39.995Z,97166.03
2018-06-25T08:51:05.378Z,97160.16
2018-06-25T08:54:30.092Z,97156.06
2018-06-25T08:57:54.753Z,97149.75
2018-06-25T09:01:19.723Z,97152.20
2018-06-25T09:04:44.469Z,97154.02
2018-06-25T09:08:09.272Z,97158.69
2018-06-25T09:11:33.931Z,97163.55
2018-06-25T09:14:58.635Z,97164.34
2018-06-25T09:18:23.994Z,97166.30
2018-06-25T09:21:48.677Z,97166.61
2018-06-25T09:25:13.349Z,97170.39
2018-06-25T09:28:38.113Z,97174.77
2018-06-25T09:32:02.799Z,97172.13
2018-06-25T09:35:27.483Z,97169.24
2018-06-25T09:38:52.129Z,97176.28
2018-06-25T09:42:16.803Z,97174.20
2018-06-25T09:45:41.536Z,97170.58
2018-06-25T09:49:06.287Z,97175.71
2018-06-25T09:52:30.925Z,97178.72
2018-06-25T09:55:55.635Z,97184.33
2018-06-25T09:59:20.245Z,97184.58
2018-06-25T10:02:44.945Z,97182.41
2018-06-25T10:06:09.629Z,97181.45
2018-06-25T10:09:35.237Z,97184.56
2018-06-25T10:12:59.949Z,97184.67
2018-06-25T10:16:24.853Z,97186.36
2018-06-25T10:19:49.561Z,97183.97
2018-06-25T10:23:14.295Z,97190.30
2018-06-25T10:26:39.109Z,97182.16
2018-06-25T10:30:03.945Z,97183.34
2018-06-25T10:33:28.805Z,97183.56
2018-06-25T10:36:53.538Z,97183.83
2018-06-25T10:40:18.243Z,97176.83
2018-06-25T10:43:42.911Z,97177.80
2018-06-25T10:47:07.677Z,97170.67
2018-06-25T10:50:32.447Z,97161.21
2018-06-25T10:53:57.116Z,97174.88
2018-06-25T10:57:22.351Z,97179.56
2018-06-25T11:00:47.116Z,97181.37
2018-06-25T11:04:11.887Z,97177.16
2018-06-25T11:07:36.983Z,97180.70
2018-06-25T11:11:01.830Z,97180.61
2018-06-25T11:14:26.490Z,97180.30
2018-06-25T11:17:51.181Z,97179.13
2018-06-25T11:21:16.061Z,97176.94
2018-06-25T11:24:40.401Z,97176.77
2018-06-25T11:28:05.580Z,97178.22
2018-06-25T11:31:30.302Z,97177.99
2018-06-25T11:34:54.945Z,97186.58
2018-06-25T11:38:19.701Z,97184.47
2018-06-25T11:41:44.455Z,97179.23
2018-06-25T11:45:09.089Z,97187.00
2018-06-25T11:48:33.787Z,97179.64
2018-06-25T11:51:58.773Z,97177.22
2018-06-25T11:55:24.820Z,97180.02
2018-06-25T11:58:49.625Z,97172.47
2018-06-25T12:02:14.465Z,97178.89
2018-06-25T12:05:39.119Z,97175.63
2018-06-25T12:09:04.088Z,97183.96
2018-06-25T12:12:28.795Z,97185.64
2018-06-25T12:15:54.216Z,97187.70
2018-06-25T12:19:18.861Z,97187.75
2018-06-25T12:22:43.601Z,97183.59
2018-06-25T12:26:08.251Z,97180.58
2018-06-25T12:29:33.071Z,97175.99
2018-06-25T12:32:57.867Z,97176.00
2018-06-25T12:36:22.507Z,97172.84
2018-06-25T12:39:47.308Z,97170.42
2018-06-25T12:43:12.108Z,97171.62
2018-06-25T12:46:37.123Z,97172.87
2018-06-25T12:50:01.778Z,97165.43
2018-06-25T12:53:26.422Z,97169.09
2018-06-25T12:56:50.835Z,97176.70
2018-06-25T13:00:15.613Z,97169.38
2018-06-25T13:03:40.235Z,97168.05
2018-06-25T13:07:05.031Z,97170.77
2018-06-25T13:10:29.685Z,97170.34
2018-06-25T13:13:54.335Z,97158.85
2018-06-25T13:17:18.936Z,97156.66
2018-06-25T13:20:43.686Z,97154.84
2018-06-25T13:24:07.944Z,97153.25
2018-06-25T13:27:32.613Z,97153.58
2018-06-25T13:30:57.253Z,97144.84
2018-06-25T13:34:21.940Z,97145.36
2018-06-25T13:37:46.686Z,97147.44
2018-06-25T13:41:11.359Z,97153.91
2018-06-25T13:44:36.301Z,97142.07
2018-06-25T13:48:00.609Z,97145.53
2018-06-25T13:51:25.279Z,97147.17
2018-06-25T13:54:50.021Z,97143.02
2018-06-25T13:58:14.766Z,97146.08
2018-06-25T14:01:39.876Z,97145.05
2018-06-25T14:05:04.232Z,97146.00
2018-06-25T14:08:28.997Z,97145.56
2018-06-25T14:11:53.717Z,97145.31
2018-06-25T14:15:18.411Z,97140.02
2018-06-25T14:18:43.170Z,97140.80
2018-06-25T14:22:07.882Z,97137.50
2018-06-25T14:25:36.557Z,97135.35
2018-06-25T14:29:01.287Z,97132.52
2018-06-25T14:32:31.239Z,97120.33
2018-06-25T14:35:55.882Z,97131.38
2018-06-25T14:39:20.654Z,97128.50
2018-06-25T14:42:45.324Z,97119.00
2018-06-25T14:46:10.161Z,97122.89
2018-06-25T14:49:34.841Z,97116.34
2018-06-25T14:52:59.471Z,97112.09
2018-06-25T14:56:24.160Z,97113.64
2018-06-25T14:59:48.472Z,97114.09
2018-06-25T15:03:13.091Z,97110.36
2018-06-25T15:06:37.851Z,97118.00
2018-06-25T15:10:02.613Z,97104.98
2018-06-25T15:13:27.405Z,97097.96
2018-06-25T15:16:51.789Z,97098.25
2018-06-25T15:20:16.454Z,97101.55
2018-06-25T15:23:41.135Z,97104.33
2018-06-25T15:27:06.119Z,97095.55
2018-06-25T15:30:30.720Z,97098.01
2018-06-25T15:33:55.061Z,97099.16
2018-06-25T15:37:20.327Z,97107.35
2018-06-25T15:40:45.051Z,97101.97
2018-06-25T15:44:09.853Z,97093.33
2018-06-25T15:47:34.182Z,97091.38
2018-06-25T15:50:58.878Z,97094.88
2018-06-25T15:54:23.639Z,97080.45
2018-06-25T15:57:48.315Z,97094.27
2018-06-25T16:01:13.599Z,97092.75
2018-06-25T16:04:38.333Z,97093.81
2018-06-25T16:08:03.014Z,97087.08
2018-06-25T16:11:27.335Z,97082.94
2018-06-25T16:14:51.657Z,97083.76
2018-06-25T16:18:16.456Z,97083.80
2018-06-25T16:21:41.191Z,97086.25
2018-06-25T16:25:06.570Z,97092.78
2018-06-25T16:28:31.313Z,97090.81
2018-06-25T16:31:56.224Z,97090.28
2018-06-25T16:35:20.883Z,97087.08
2018-06-25T16:38:45.520Z,97090.21
2018-06-25T16:42:10.233Z,97084.48
2018-06-25T16:45:34.907Z,97086.77
2018-06-25T16:48:59.711Z,97082.88
2018-06-25T16:52:24.400Z,97084.71
2018-06-25T16:55:50.037Z,97081.36
2018-06-25T16:59:14.783Z,97080.59
2018-06-25T17:02:39.474Z,97077.64
2018-06-25T17:06:03.870Z,97082.22
2018-06-25T17:09:28.583Z,97086.13
2018-06-25T17:12:53.217Z,97093.52
2018-06-25T17:16:18.219Z,97090.77
2018-06-25T17:19:42.517Z,97094.86
2018-06-25T17:23:07.625Z,97093.86
2018-06-25T17:26:31.986Z,97092.69
2018-06-25T17:29:56.344Z,97097.69
2018-06-25T17:33:20.964Z,97101.38
2018-06-25T17:36:45.325Z,97101.55
2018-06-25T17:40:10.096Z,97097.42
2018-06-25T17:43:35.000Z,97091.31
2018-06-25T17:47:00.335Z,97103.15
2018-06-25T17:50:27.149Z,97102.17
2018-06-25T17:53:52.049Z,97110.61
2018-06-25T17:57:16.938Z,97111.08
2018-06-25T18:00:41.381Z,97116.89
2018-06-25T18:04:06.028Z,97117.34
2018-06-25T18:07:30.947Z,97121.53
2018-06-25T18:10:56.032Z,97128.91
2018-06-25T18:14:21.723Z,97128.30
2018-06-25T18:17:46.421Z,97118.95
2018-06-25T18:21:11.277Z,97125.89
2018-06-25T18:24:35.959Z,97129.81
2018-06-25T18:28:00.830Z,97124.48
2018-06-25T18:31:25.635Z,97122.90
2018-06-25T18:34:50.411Z,97131.55
2018-06-25T18:38:14.931Z,97131.36
2018-06-25T18:41:40.863Z,97134.03
2018-06-25T18:45:05.392Z,97133.06
2018-06-25T18:48:30.069Z,97134.89
2018-06-25T18:51:54.787Z,97137.81
2018-06-25T18:55:19.577Z,97134.05
2018-06-25T18:58:44.436Z,97135.63
2018-06-25T19:02:09.160Z,97131.69
2018-06-25T19:05:34.028Z,97146.77
2018-06-25T19:08:59.771Z,97138.39
2018-06-25T19:12:24.517Z,97143.03
2018-06-25T19:15:49.294Z,97143.25
2018-06-25T19:19:14.201Z,97145.66
2018-06-25T19:22:40.924Z,97151.34
2018-06-25T19:26:06.213Z,97159.13
2018-06-25T19:29:31.073Z,97158.08
2018-06-25T19:32:55.769Z,97166.95
2018-06-25T19:36:21.035Z,97166.12
2018-06-25T19:39:45.776Z,97172.03
2018-06-25T19:43:10.477Z,97174.09
2018-06-25T19:46:35.250Z,97174.78
2018-06-25T19:49:59.972Z,97180.63
2018-06-25T19:53:24.677Z,97184.67
2018-06-25T19:56:49.449Z,97193.47
2018-06-25T20:00:14.224Z,97191.34
2018-06-25T20:03:38.881Z,97190.41
2018-06-25T20:07:03.607Z,97198.17
2018-06-25T20:10:28.583Z,97198.17
2018-06-25T20:13:53.318Z,97200.34
2018-06-25T20:17:18.289Z,97206.92
2018-06-25T20:20:45.157Z,97202.38
2018-06-25T20:24:09.689Z,97205.71
2018-06-25T20:27:34.074Z,97202.13
2018-06-25T20:30:58.860Z,97207.62
2018-06-25T20:34:24.295Z,97211.56
2018-06-25T20:37:49.032Z,97211.73
2018-06-25T20:41:13.444Z,97213.01
2018-06-25T20:44:38.173Z,97211.33
2018-06-25T20:48:02.880Z,97212.05
2018-06-25T20:51:27.628Z,97212.83
2018-06-25T20:54:52.260Z,97221.95
2018-06-25T20:58:16.895Z,97220.09
2018-06-25T21:01:41.249Z,97227.95
2018-06-25T21:05:06.278Z,97220.17
2018-06-25T21:08:30.918Z,97219.19
2018-06-25T21:11:55.542Z,97227.17
2018-06-25T21:15:20.167Z,97226.98
2018-06-25T21:18:44.913Z,97228.02
2018-06-25T21:22:09.626Z,97223.74
2018-06-25T21:25:34.490Z,97228.98
2018-06-25T21:28:59.206Z,97233.47
2018-06-25T21:32:23.950Z,97234.32
2018-06-25T21:35:48.694Z,97229.41
2018-06-25T21:39:13.471Z,97228.52
2018-06-25T21:42:38.097Z,97229.88
2018-06-25T21:46:02.757Z,97236.22
2018-06-25T21:49:27.590Z,97239.88
2018-06-25T21:52:52.279Z,97240.40
2018-06-25T21:56:16.949Z,97238.24
2018-06-25T21:59:41.605Z,97233.51
2018-06-25T22:03:06.294Z,97233.86
2018-06-25T22:06:30.999Z,97239.20
2018-06-25T22:09:55.331Z,97240.93
2018-06-25T22:13:20.033Z,97241.37
2018-06-25T22:16:44.751Z,97236.83
2018-06-25T22:20:09.539Z,97239.50
2018-06-25T22:23:34.339Z,97239.30
2018-06-25T22:26:59.322Z,97245.95
2018-06-25T22:30:24.291Z,97245.72
2018-06-25T22:33:48.548Z,97246.77
2018-06-25T22:37:13.447Z,97246.85
2018-06-25T22:40:39.179Z,97244.30
2018-06-25T22:44:14.750Z,97250.95
2018-06-25T22:47:39.430Z,97252.98
2018-06-25T22:51:04.154Z,97254.10
2018-06-25T22:54:28.817Z,97252.98
2018-06-25T22:57:53.878Z,97249.97
2018-06-25T23:01:18.569Z,97251.55
2018-06-25T23:04:43.227Z,97251.54
2018-06-25T23:08:07.538Z,97255.92
2018-06-25T23:11:32.179Z,97252.84
2018-06-25T23:14:56.816Z,97255.32
2018-06-25T23:18:21.423Z,97257.90
2018-06-25T23:21:46.057Z,97259.02
2018-06-25T23:25:10.726Z,97258.28
2018-06-25T23:28:35.427Z,97258.47
2018-06-25T23:32:00.126Z,97259.78
2018-06-25T23:35:24.847Z,97258.67
2018-06-25T23:38:49.527Z,97263.44
2018-06-25T23:42:14.237Z,97267.09
2018-06-25T23:45:38.983Z,97267.12
2018-06-25T23:49:03.744Z,97268.02
2018-06-25T23:52:28.429Z,97278.14
2018-06-25T23:55:53.061Z,97270.00
2018-06-25T23:59:27.221Z,97266.19
